createdAt,value
2017-06-04T00:01:24.471Z,3.80
2017-06-04T00:03:52.689Z,4.43
2017-06-04T00:06:20.908Z,3.40
2017-06-04T00:08:49.115Z,3.83
2017-06-04T00:11:17.339Z,3.40
2017-06-04T00:13:45.564Z,3.57
2017-06-04T00:16:13.766Z,3.17
2017-06-04T00:18:41.996Z,3.63
2017-06-04T00:21:10.207Z,3.70
2017-06-04T00:23:38.445Z,2.50
2017-06-04T00:26:06.641Z,3.40
2017-06-04T00:28:35.612Z,3.70
2017-06-04T00:31:03.831Z,4.20
2017-06-04T00:33:32.032Z,3.27
2017-06-04T00:36:00.271Z,3.43
2017-06-04T00:38:28.479Z,3.93
2017-06-04T00:40:56.688Z,4.43
2017-06-04T00:43:24.907Z,4.13
2017-06-04T00:45:53.109Z,4.17
2017-06-04T00:48:21.334Z,3.80
2017-06-04T00:50:49.540Z,4.17
2017-06-04T00:53:17.728Z,4.27
2017-06-04T00:55:45.958Z,5.43
2017-06-04T00:58:14.162Z,4.13
2017-06-04T01:00:42.447Z,3.87
2017-06-04T01:03:10.660Z,3.70
2017-06-04T01:05:38.874Z,4.93
2017-06-04T01:08:07.080Z,5.33
2017-06-04T01:10:35.328Z,5.87
2017-06-04T01:13:03.537Z,5.27
2017-06-04T01:15:31.752Z,5.43
2017-06-04T01:17:59.976Z,5.87
2017-06-04T01:20:28.209Z,6.27
2017-06-04T01:22:56.434Z,4.93
2017-06-04T01:25:24.665Z,5.47
2017-06-04T01:27:52.873Z,4.80
2017-06-04T01:30:21.066Z,5.20
2017-06-04T01:32:49.286Z,4.33
2017-06-04T01:35:17.485Z,5.10
2017-06-04T01:37:45.727Z,4.47
2017-06-04T01:40:13.958Z,4.10
2017-06-04T01:42:42.172Z,4.30
2017-06-04T01:45:10.381Z,4.40
2017-06-04T01:47:38.591Z,5.77
2017-06-04T01:50:06.813Z,5.43
2017-06-04T01:52:35.019Z,3.80
2017-06-04T01:55:03.216Z,4.70
2017-06-04T01:57:32.202Z,3.47
2017-06-04T02:00:00.476Z,4.60
2017-06-04T02:02:28.700Z,4.30
2017-06-04T02:04:56.910Z,4.00
2017-06-04T02:07:25.107Z,4.73
2017-06-04T02:09:54.093Z,5.03
2017-06-04T02:12:23.070Z,5.27
2017-06-04T02:14:51.316Z,6.07
2017-06-04T02:17:19.517Z,5.03
2017-06-04T02:19:47.726Z,5.13
2017-06-04T02:22:16.715Z,5.50
2017-06-04T02:24:45.689Z,5.80
2017-06-04T02:27:13.924Z,5.20
2017-06-04T02:29:42.139Z,5.80
2017-06-04T02:32:10.343Z,6.43
2017-06-04T02:34:38.557Z,6.70
2017-06-04T02:37:06.580Z,6.43
2017-06-04T02:39:34.811Z,5.70
2017-06-04T02:42:03.006Z,5.70
2017-06-04T02:44:31.236Z,5.30
2017-06-04T02:46:59.445Z,6.63
2017-06-04T02:49:27.645Z,5.83
2017-06-04T02:51:56.644Z,6.37
2017-06-04T02:54:24.857Z,7.00
2017-06-04T02:56:53.054Z,7.27
2017-06-04T02:59:21.271Z,7.33
2017-06-04T03:01:49.487Z,7.90
2017-06-04T03:04:17.688Z,7.80
2017-06-04T03:06:46.728Z,7.40
2017-06-04T03:09:14.940Z,8.33
2017-06-04T03:11:43.177Z,9.70
2017-06-04T03:14:11.386Z,7.37
2017-06-04T03:16:39.610Z,7.57
2017-06-04T03:19:07.828Z,7.90
2017-06-04T03:21:36.023Z,8.23
2017-06-04T03:24:04.240Z,8.43
2017-06-04T03:26:32.523Z,8.70
2017-06-04T03:29:00.754Z,8.33
2017-06-04T03:31:29.750Z,9.83
2017-06-04T03:33:58.724Z,8.77
2017-06-04T03:36:27.056Z,7.77
2017-06-04T03:38:55.264Z,7.37
2017-06-04T03:41:23.495Z,8.93
2017-06-04T03:43:51.724Z,10.57
2017-06-04T03:46:19.943Z,8.53
2017-06-04T03:48:48.176Z,8.73
2017-06-04T03:51:16.380Z,9.70
2017-06-04T03:53:44.604Z,8.00
2017-06-04T03:56:12.814Z,8.90
2017-06-04T03:58:41.799Z,9.67
2017-06-04T04:01:10.795Z,9.17
2017-06-04T04:03:39.777Z,9.13
2017-06-04T04:06:08.044Z,10.23
2017-06-04T04:08:36.244Z,9.90
2017-06-04T04:11:04.472Z,9.43
2017-06-04T04:13:32.710Z,10.27
2017-06-04T04:16:00.933Z,11.50
2017-06-04T04:18:29.156Z,9.43
2017-06-04T04:20:57.384Z,11.67
2017-06-04T04:23:25.605Z,11.17
2017-06-04T04:25:53.846Z,9.30
2017-06-04T04:28:22.054Z,9.40
2017-06-04T04:30:50.316Z,9.03
2017-06-04T04:33:18.533Z,8.20
2017-06-04T04:35:46.749Z,8.53
2017-06-04T04:38:15.739Z,7.43
2017-06-04T04:40:44.722Z,15.03
2017-06-04T04:43:13.015Z,8.67
2017-06-04T04:45:42.001Z,7.97
2017-06-04T04:48:10.983Z,7.57
2017-06-04T04:50:39.208Z,8.33
2017-06-04T04:53:07.432Z,7.53
2017-06-04T04:55:35.668Z,6.70
2017-06-04T04:58:03.880Z,6.90
2017-06-04T05:00:32.117Z,7.83
2017-06-04T05:03:00.334Z,7.17
2017-06-04T05:05:29.299Z,5.60
2017-06-04T05:07:57.517Z,5.40
2017-06-04T05:10:25.731Z,4.40
2017-06-04T05:12:53.748Z,8.27
2017-06-04T05:15:21.950Z,5.30
2017-06-04T05:17:50.164Z,6.00
2017-06-04T05:20:18.210Z,5.73
2017-06-04T05:22:46.237Z,6.20
2017-06-04T05:25:30.760Z,4.77
2017-06-04T05:28:00.223Z,8.50
2017-06-04T05:30:28.432Z,5.50
2017-06-04T05:32:56.658Z,7.27
2017-06-04T05:35:24.867Z,7.23
2017-06-04T05:37:53.104Z,4.93
2017-06-04T05:40:21.337Z,8.90
2017-06-04T05:42:49.645Z,6.23
2017-06-04T05:45:18.640Z,5.23
2017-06-04T05:47:46.850Z,4.57
2017-06-04T05:50:15.095Z,6.33
2017-06-04T05:52:44.070Z,7.13
2017-06-04T05:55:13.058Z,5.00
2017-06-04T05:57:41.282Z,7.60
2017-06-04T06:00:09.485Z,5.20
2017-06-04T06:02:37.718Z,7.40
2017-06-04T06:05:05.940Z,4.90
2017-06-04T06:07:34.150Z,7.70
2017-06-04T06:10:03.170Z,5.97
2017-06-04T06:12:31.363Z,7.27
2017-06-04T06:14:59.596Z,7.90
2017-06-04T06:17:27.806Z,9.30
2017-06-04T06:19:56.021Z,13.80
2017-06-04T06:22:25.040Z,13.50
2017-06-04T06:24:53.819Z,9.80
2017-06-04T06:27:22.817Z,13.53
2017-06-04T06:29:51.094Z,11.47
2017-06-04T06:32:19.303Z,13.20
2017-06-04T06:34:47.542Z,20.50
2017-06-04T06:37:15.762Z,11.50
2017-06-04T06:39:43.991Z,17.00
2017-06-04T06:42:12.210Z,13.10
2017-06-04T06:44:40.424Z,14.13
2017-06-04T06:47:09.409Z,12.53
2017-06-04T06:49:38.399Z,12.70
2017-06-04T06:52:07.427Z,16.23
2017-06-04T06:54:35.648Z,17.33
2017-06-04T06:57:03.987Z,15.63
2017-06-04T06:59:32.276Z,16.73
2017-06-04T07:02:00.500Z,12.33
2017-06-04T07:04:29.505Z,18.33
2017-06-04T07:06:57.534Z,13.13
2017-06-04T07:09:25.744Z,18.27
2017-06-04T07:11:54.767Z,17.87
2017-06-04T07:14:22.991Z,17.83
2017-06-04T07:16:51.201Z,20.57
2017-06-04T07:19:19.467Z,16.90
2017-06-04T07:21:47.676Z,16.03
2017-06-04T07:24:15.901Z,18.67
2017-06-04T07:26:45.040Z,19.07
2017-06-04T07:29:13.259Z,15.13
2017-06-04T07:31:41.491Z,15.83
2017-06-04T07:34:10.257Z,17.90
2017-06-04T07:36:38.474Z,16.07
2017-06-04T07:39:06.705Z,21.40
2017-06-04T07:41:35.005Z,31.63
2017-06-04T07:44:03.224Z,24.63
2017-06-04T07:46:32.255Z,25.63
2017-06-04T07:49:00.593Z,22.33
2017-06-04T07:51:29.594Z,23.33
2017-06-04T07:53:58.578Z,23.30
2017-06-04T07:56:26.807Z,27.80
2017-06-04T07:58:55.026Z,29.37
2017-06-04T08:01:24.166Z,20.77
2017-06-04T08:03:52.413Z,23.97
2017-06-04T08:06:20.637Z,21.27
2017-06-04T08:08:48.874Z,21.20
2017-06-04T08:11:18.058Z,24.20
2017-06-04T08:13:47.057Z,29.97
2017-06-04T08:16:15.296Z,21.87
2017-06-04T08:18:43.632Z,27.37
2017-06-04T08:21:11.872Z,26.23
2017-06-04T08:23:40.886Z,20.60
2017-06-04T08:26:09.259Z,27.37
2017-06-04T08:28:37.473Z,26.97
2017-06-04T08:31:06.143Z,29.70
2017-06-04T08:33:35.614Z,16.07
2017-06-04T08:36:03.826Z,26.27
2017-06-04T08:38:32.065Z,26.77
2017-06-04T08:41:00.953Z,25.87
2017-06-04T08:43:29.160Z,25.57
2017-06-04T08:45:57.383Z,23.50
2017-06-04T08:48:27.528Z,31.37
2017-06-04T08:50:55.741Z,33.73
2017-06-04T08:53:23.950Z,30.00
2017-06-04T08:55:53.236Z,25.27
2017-06-04T08:58:21.445Z,27.73
2017-06-04T09:00:49.701Z,26.00
2017-06-04T09:03:18.688Z,29.93
2017-06-04T09:05:47.681Z,22.47
2017-06-04T09:08:16.677Z,21.57
2017-06-04T09:10:45.673Z,29.93
2017-06-04T09:13:14.661Z,23.57
2017-06-04T09:15:43.650Z,22.07
2017-06-04T09:18:13.570Z,20.33
2017-06-04T09:20:42.554Z,25.50
2017-06-04T09:23:11.624Z,22.90
2017-06-04T09:25:39.863Z,18.80
2017-06-04T09:28:08.082Z,21.73
2017-06-04T09:30:36.296Z,22.57
2017-06-04T09:33:04.521Z,27.80
2017-06-04T09:35:32.745Z,22.57
2017-06-04T09:38:00.969Z,22.73
2017-06-04T09:40:30.843Z,19.57
2017-06-04T09:42:59.052Z,20.97
2017-06-04T09:45:27.264Z,15.83
2017-06-04T09:47:55.500Z,13.77
2017-06-04T09:50:23.719Z,15.10
2017-06-04T09:52:51.934Z,17.83
2017-06-04T09:55:20.294Z,17.43
2017-06-04T09:57:48.512Z,19.93
2017-06-04T10:00:16.727Z,20.33
2017-06-04T10:02:44.984Z,12.33
2017-06-04T10:05:13.207Z,12.73
2017-06-04T10:07:41.430Z,17.43
2017-06-04T10:10:09.918Z,16.93
2017-06-04T10:12:38.135Z,13.57
2017-06-04T10:15:06.359Z,16.17
2017-06-04T10:17:34.613Z,16.20
2017-06-04T10:20:02.822Z,12.93
2017-06-04T10:22:31.047Z,13.30
2017-06-04T10:24:59.899Z,16.27
2017-06-04T10:27:28.123Z,16.97
2017-06-04T10:29:56.341Z,12.87
2017-06-04T10:32:24.677Z,19.30
2017-06-04T10:34:52.891Z,17.13
2017-06-04T10:37:21.126Z,15.90
2017-06-04T10:39:49.887Z,12.67
2017-06-04T10:42:18.128Z,14.27
2017-06-04T10:44:46.338Z,14.93
2017-06-04T10:47:14.743Z,14.10
2017-06-04T10:49:42.946Z,16.17
2017-06-04T10:52:11.159Z,12.17
2017-06-04T10:54:39.454Z,20.67
2017-06-04T10:57:07.684Z,16.20
2017-06-04T10:59:35.892Z,24.97
2017-06-04T11:02:04.523Z,13.10
2017-06-04T11:04:32.748Z,11.30
2017-06-04T11:07:01.120Z,15.17
2017-06-04T11:09:29.389Z,12.17
2017-06-04T11:11:57.629Z,17.23
2017-06-04T11:14:25.853Z,15.13
2017-06-04T11:16:54.495Z,14.77
2017-06-04T11:19:22.745Z,14.77
2017-06-04T11:21:50.964Z,16.33
2017-06-04T11:24:19.213Z,16.47
2017-06-04T11:26:47.424Z,13.03
2017-06-04T11:29:15.648Z,19.87
2017-06-04T11:31:43.903Z,12.97
2017-06-04T11:34:12.105Z,12.67
2017-06-04T11:36:40.327Z,12.70
2017-06-04T11:39:08.738Z,9.87
2017-06-04T11:41:37.719Z,14.90
2017-06-04T11:44:05.922Z,14.83
2017-06-04T11:46:34.526Z,30.33
2017-06-04T11:49:02.747Z,10.73
2017-06-04T11:51:30.970Z,10.27
2017-06-04T11:53:59.418Z,9.27
2017-06-04T11:56:27.642Z,14.83
2017-06-04T11:58:55.852Z,12.20
2017-06-04T12:01:24.090Z,10.30
2017-06-04T12:03:52.301Z,10.87
2017-06-04T12:06:20.524Z,12.27
2017-06-04T12:08:48.987Z,7.77
2017-06-04T12:11:17.197Z,7.93
2017-06-04T12:13:45.407Z,7.47
2017-06-04T12:16:13.775Z,6.57
2017-06-04T12:18:42.016Z,9.80
2017-06-04T12:21:10.230Z,7.20
2017-06-04T12:23:39.233Z,9.73
2017-06-04T12:26:07.446Z,12.70
2017-06-04T12:28:35.665Z,8.27
2017-06-04T12:31:03.929Z,10.03
2017-06-04T12:33:32.250Z,12.37
2017-06-04T12:36:00.490Z,10.30
2017-06-04T12:38:29.508Z,8.37
2017-06-04T12:40:58.485Z,15.70
2017-06-04T12:43:27.526Z,13.37
2017-06-04T12:45:56.050Z,10.70
2017-06-04T12:48:24.264Z,16.67
2017-06-04T12:50:52.472Z,12.37
2017-06-04T12:53:20.745Z,10.60
2017-06-04T12:55:48.967Z,8.60
2017-06-04T12:58:17.954Z,5.47
2017-06-04T13:00:46.235Z,5.33
2017-06-04T13:03:14.459Z,6.77
2017-06-04T13:05:42.727Z,3.77
2017-06-04T13:08:11.063Z,4.17
2017-06-04T13:10:40.037Z,4.13
2017-06-04T13:13:08.245Z,7.07
2017-06-04T13:15:36.494Z,4.70
2017-06-04T13:18:05.489Z,5.30
2017-06-04T13:20:34.465Z,10.70
2017-06-04T13:23:02.779Z,6.80
2017-06-04T13:25:31.001Z,9.53
2017-06-04T13:27:59.242Z,6.57
2017-06-04T13:30:27.527Z,8.00
2017-06-04T13:32:55.733Z,7.87
2017-06-04T13:35:23.942Z,8.00
2017-06-04T13:37:52.169Z,6.83
2017-06-04T13:40:20.374Z,7.67
2017-06-04T13:42:48.594Z,8.40
2017-06-04T13:45:16.833Z,5.67
2017-06-04T13:47:45.046Z,4.70
2017-06-04T13:50:13.252Z,8.67
2017-06-04T13:52:41.855Z,5.83
2017-06-04T13:55:10.066Z,5.57
2017-06-04T13:57:38.275Z,9.23
2017-06-04T14:00:06.693Z,11.23
2017-06-04T14:02:34.918Z,7.60
2017-06-04T14:05:03.125Z,8.00
2017-06-04T14:07:32.160Z,6.13
2017-06-04T14:10:00.370Z,4.97
2017-06-04T14:12:28.618Z,6.27
2017-06-04T14:14:56.863Z,6.87
2017-06-04T14:17:25.085Z,4.50
2017-06-04T14:19:53.289Z,6.03
2017-06-04T14:22:22.283Z,5.67
2017-06-04T14:24:51.261Z,6.83
2017-06-04T14:27:19.477Z,5.53
2017-06-04T14:29:47.799Z,4.80
2017-06-04T14:32:16.004Z,4.03
2017-06-04T14:34:44.194Z,4.63
2017-06-04T14:37:12.424Z,6.63
2017-06-04T14:39:40.632Z,6.93
2017-06-04T14:42:09.607Z,3.73
2017-06-04T14:44:37.855Z,3.90
2017-06-04T14:47:06.072Z,6.30
2017-06-04T14:49:35.039Z,7.30
2017-06-04T14:52:03.253Z,6.30
2017-06-04T14:54:31.470Z,6.13
2017-06-04T14:56:59.669Z,4.07
2017-06-04T14:59:28.271Z,8.50
2017-06-04T15:01:57.243Z,5.50
2017-06-04T15:04:26.231Z,5.00
2017-06-04T15:06:54.483Z,5.47
2017-06-04T15:09:22.690Z,7.83
2017-06-04T15:11:51.667Z,3.70
2017-06-04T15:14:19.905Z,13.90
2017-06-04T15:16:48.116Z,6.83
2017-06-04T15:19:16.328Z,6.90
2017-06-04T15:21:44.624Z,6.70
2017-06-04T15:24:12.839Z,7.23
2017-06-04T15:26:41.062Z,9.53
2017-06-04T15:29:09.390Z,7.37
2017-06-04T15:31:37.601Z,4.73
2017-06-04T15:34:06.816Z,4.73
2017-06-04T15:36:35.054Z,6.53
2017-06-04T15:39:03.579Z,6.03
2017-06-04T15:41:31.790Z,8.53
2017-06-04T15:44:00.193Z,5.67
2017-06-04T15:46:29.196Z,5.97
2017-06-04T15:48:58.264Z,4.90
2017-06-04T15:51:26.712Z,5.37
2017-06-04T15:53:54.968Z,4.03
2017-06-04T15:56:23.185Z,4.13
2017-06-04T15:58:51.559Z,6.40
2017-06-04T16:01:19.775Z,7.47
2017-06-04T16:03:48.742Z,8.33
2017-06-04T16:06:18.257Z,4.50
2017-06-04T16:08:46.488Z,5.47
2017-06-04T16:11:14.727Z,10.07
2017-06-04T16:13:42.986Z,16.70
2017-06-04T16:16:11.205Z,9.00
2017-06-04T16:18:39.409Z,7.90
2017-06-04T16:21:07.743Z,13.40
2017-06-04T16:23:35.985Z,11.70
2017-06-04T16:26:04.219Z,4.30
2017-06-04T16:28:32.837Z,9.87
2017-06-04T16:31:01.846Z,11.07
2017-06-04T16:33:30.050Z,6.33
2017-06-04T16:35:58.435Z,8.03
2017-06-04T16:38:26.659Z,10.53
2017-06-04T16:40:54.875Z,15.17
2017-06-04T16:43:23.129Z,7.80
2017-06-04T16:45:51.318Z,7.90
2017-06-04T16:48:19.561Z,9.63
2017-06-04T16:50:48.778Z,8.77
2017-06-04T16:53:17.010Z,7.67
2017-06-04T16:55:46.005Z,8.43
2017-06-04T16:58:15.098Z,6.10
2017-06-04T17:00:44.083Z,7.40
2017-06-04T17:03:12.297Z,6.00
2017-06-04T17:05:40.887Z,7.60
2017-06-04T17:08:09.095Z,8.57
2017-06-04T17:10:37.356Z,9.93
2017-06-04T17:13:05.586Z,10.00
2017-06-04T17:15:34.589Z,24.77
2017-06-04T17:18:02.905Z,12.37
2017-06-04T17:20:31.143Z,7.57
2017-06-04T17:22:59.352Z,8.30
2017-06-04T17:25:28.006Z,4.20
2017-06-04T17:27:56.205Z,7.13
2017-06-04T17:30:24.431Z,7.40
2017-06-04T17:32:53.435Z,5.63
2017-06-04T17:35:21.646Z,10.40
2017-06-04T17:37:50.013Z,6.80
2017-06-04T17:40:18.275Z,5.17
2017-06-04T17:42:46.479Z,5.70
2017-06-04T17:45:14.691Z,8.20
2017-06-04T17:47:43.724Z,10.73
2017-06-04T17:50:11.934Z,6.43
2017-06-04T17:52:40.142Z,5.97
2017-06-04T17:55:09.463Z,5.97
2017-06-04T17:57:37.687Z,9.10
2017-06-04T18:00:05.904Z,6.77
2017-06-04T18:02:34.137Z,5.30
2017-06-04T18:05:02.360Z,8.33
2017-06-04T18:07:30.580Z,6.50
2017-06-04T18:09:58.946Z,5.83
2017-06-04T18:12:27.167Z,19.30
2017-06-04T18:14:55.395Z,19.17
2017-06-04T18:17:24.017Z,6.17
2017-06-04T18:19:52.984Z,7.03
2017-06-04T18:22:21.206Z,4.00
2017-06-04T18:24:49.537Z,7.57
2017-06-04T18:27:17.566Z,7.70
2017-06-04T18:29:45.786Z,9.40
2017-06-04T18:32:14.042Z,5.80
2017-06-04T18:34:42.275Z,5.77
2017-06-04T18:37:10.510Z,5.30
2017-06-04T18:39:39.150Z,5.13
2017-06-04T18:42:07.378Z,7.03
2017-06-04T18:44:36.357Z,9.40
2017-06-04T18:47:05.368Z,10.30
2017-06-04T18:49:34.342Z,4.77
2017-06-04T18:52:02.580Z,8.10
2017-06-04T18:54:31.039Z,7.87
2017-06-04T18:56:59.264Z,3.50
2017-06-04T18:59:27.484Z,5.13
2017-06-04T19:01:56.156Z,3.97
2017-06-04T19:04:24.387Z,4.63
2017-06-04T19:06:52.617Z,4.27
2017-06-04T19:09:20.851Z,5.40
2017-06-04T19:11:49.861Z,10.80
2017-06-04T19:14:18.116Z,5.93
2017-06-04T19:16:47.136Z,5.27
2017-06-04T19:19:16.108Z,8.60
2017-06-04T19:21:45.101Z,4.33
2017-06-04T19:24:13.695Z,5.03
2017-06-04T19:26:42.672Z,5.63
2017-06-04T19:29:10.896Z,5.07
2017-06-04T19:31:39.114Z,4.90
2017-06-04T19:34:07.316Z,5.33
2017-06-04T19:36:35.526Z,6.80
2017-06-04T19:39:03.567Z,4.53
2017-06-04T19:41:31.777Z,4.00
2017-06-04T19:44:00.009Z,5.00
2017-06-04T19:46:28.503Z,5.00
2017-06-04T19:48:56.735Z,3.97
2017-06-04T19:51:25.636Z,5.47
2017-06-04T19:53:54.652Z,6.17
2017-06-04T19:56:22.697Z,7.30
2017-06-04T19:58:51.701Z,4.83
2017-06-04T20:01:20.803Z,10.33
2017-06-04T20:03:49.785Z,7.50
2017-06-04T20:06:18.760Z,5.47
2017-06-04T20:08:47.218Z,4.73
2017-06-04T20:11:15.416Z,4.90
2017-06-04T20:13:43.670Z,4.27
2017-06-04T20:16:12.026Z,4.60
2017-06-04T20:18:40.242Z,6.07
2017-06-04T20:21:08.466Z,4.80
2017-06-04T20:23:36.702Z,3.50
2017-06-04T20:26:05.705Z,4.90
2017-06-04T20:28:34.700Z,4.27
2017-06-04T20:31:03.928Z,4.07
2017-06-04T20:33:32.149Z,6.93
2017-06-04T20:36:00.359Z,5.37
2017-06-04T20:38:28.598Z,4.73
2017-06-04T20:40:56.817Z,3.97
2017-06-04T20:43:25.040Z,5.00
2017-06-04T20:45:53.285Z,7.43
2017-06-04T20:48:21.496Z,4.97
2017-06-04T20:50:50.468Z,5.73
2017-06-04T20:53:18.842Z,5.80
2017-06-04T20:55:47.051Z,4.23
2017-06-04T20:58:16.029Z,3.57
2017-06-04T21:00:44.326Z,3.50
2017-06-04T21:03:13.301Z,3.67
2017-06-04T21:05:42.272Z,3.53
2017-06-04T21:08:10.680Z,3.70
2017-06-04T21:10:39.481Z,4.27
2017-06-04T21:13:07.697Z,5.50
2017-06-04T21:15:36.114Z,4.63
2017-06-04T21:18:05.164Z,3.53
2017-06-04T21:20:33.413Z,4.50
2017-06-04T21:23:01.658Z,3.77
2017-06-04T21:25:30.633Z,6.70
2017-06-04T21:27:58.842Z,4.40
2017-06-04T21:30:27.113Z,3.93
2017-06-04T21:32:56.093Z,8.67
2017-06-04T21:35:25.121Z,6.80
2017-06-04T21:37:53.583Z,7.70
2017-06-04T21:40:21.806Z,6.30
2017-06-04T21:42:50.026Z,8.00
2017-06-04T21:45:19.034Z,6.93
2017-06-04T21:47:47.243Z,4.80
2017-06-04T21:50:15.462Z,3.90
2017-06-04T21:52:44.671Z,4.40
2017-06-04T21:55:12.976Z,5.63
2017-06-04T21:57:41.251Z,3.77
2017-06-04T22:00:09.909Z,4.10
2017-06-04T22:02:38.120Z,5.43
2017-06-04T22:05:06.334Z,4.17
2017-06-04T22:07:34.683Z,5.63
2017-06-04T22:10:02.898Z,4.30
2017-06-04T22:12:31.114Z,5.07
2017-06-04T22:14:59.443Z,4.40
2017-06-04T22:17:28.431Z,4.23
2017-06-04T22:19:57.407Z,4.00
2017-06-04T22:22:25.638Z,4.27
2017-06-04T22:24:53.855Z,3.90
2017-06-04T22:27:22.102Z,3.73
2017-06-04T22:29:50.369Z,5.03
2017-06-04T22:32:18.579Z,4.20
2017-06-04T22:34:46.773Z,5.00
2017-06-04T22:37:15.825Z,4.67
2017-06-04T22:39:44.045Z,3.67
2017-06-04T22:42:13.013Z,4.17
2017-06-04T22:44:41.367Z,2.50
2017-06-04T22:47:09.558Z,3.40
2017-06-04T22:49:37.765Z,4.47
2017-06-04T22:52:06.795Z,3.80
2017-06-04T22:54:35.009Z,3.93
2017-06-04T22:57:03.220Z,3.70
2017-06-04T22:59:31.879Z,3.20
2017-06-04T23:02:00.867Z,3.30
2017-06-04T23:04:29.859Z,3.70
2017-06-04T23:06:58.254Z,3.77
2017-06-04T23:09:26.455Z,4.17
2017-06-04T23:11:54.657Z,3.47
2017-06-04T23:14:23.234Z,3.07
2017-06-04T23:16:51.445Z,2.90
2017-06-04T23:19:20.417Z,3.20
2017-06-04T23:21:49.842Z,3.73
2017-06-04T23:24:18.813Z,8.03
2017-06-04T23:26:47.023Z,3.70
2017-06-04T23:29:15.502Z,3.40
2017-06-04T23:31:43.696Z,3.00
2017-06-04T23:34:11.930Z,3.40
2017-06-04T23:36:40.907Z,2.73
2017-06-04T23:39:09.127Z,2.97
2017-06-04T23:41:37.341Z,2.67
2017-06-04T23:44:06.595Z,4.50
2017-06-04T23:46:34.812Z,4.13
2017-06-04T23:49:03.021Z,2.80
2017-06-04T23:51:32.219Z,4.30
2017-06-04T23:54:01.201Z,2.93
2017-06-04T23:56:30.190Z,3.07
2017-06-04T23:58:58.482Z,2.73
